createdAt,value
2023-04-21T00:01:00.629Z,101514.00
2023-04-21T00:03:28.686Z,101519.00
2023-04-21T00:05:58.860Z,101501.00
2023-04-21T00:08:28.524Z,101509.00
2023-04-21T00:10:55.256Z,101504.00
2023-04-21T00:13:23.901Z,101509.00
2023-04-21T00:15:51.328Z,101513.00
2023-04-21T00:18:18.130Z,101509.00
2023-04-21T00:20:45.172Z,101507.00
2023-04-21T00:23:12.143Z,101497.00
2023-04-21T00:25:38.743Z,101490.00
2023-04-21T00:28:05.582Z,101485.00
2023-04-21T00:30:32.214Z,101482.00
2023-04-21T00:32:58.912Z,101482.00
2023-04-21T00:35:26.130Z,101471.00
2023-04-21T00:37:53.069Z,101458.00
2023-04-21T00:40:20.539Z,101456.00
2023-04-21T00:42:47.374Z,101454.00
2023-04-21T00:45:17.610Z,101448.00
2023-04-21T00:47:44.602Z,101450.00
2023-04-21T00:50:12.257Z,101438.00
2023-04-21T00:52:44.017Z,101440.00
2023-04-21T00:55:11.160Z,101438.00
2023-04-21T00:57:40.633Z,101435.00
2023-04-21T01:00:09.025Z,101445.00
2023-04-21T01:02:37.561Z,101437.00
2023-04-21T01:05:09.301Z,101438.00
2023-04-21T01:07:36.394Z,101439.00
2023-04-21T01:10:04.180Z,101442.00
2023-04-21T01:12:31.033Z,101436.00
2023-04-21T01:14:57.662Z,101430.00
2023-04-21T01:17:24.467Z,101432.00
2023-04-21T01:19:53.575Z,101427.00
2023-04-21T01:22:20.178Z,101422.00
2023-04-21T01:24:48.832Z,101416.00
2023-04-21T01:27:20.139Z,101413.00
2023-04-21T01:29:51.991Z,101406.00
2023-04-21T01:32:25.271Z,101412.00
2023-04-21T01:34:52.238Z,101405.00
2023-04-21T01:37:25.873Z,101409.00
2023-04-21T01:39:54.888Z,101402.00
2023-04-21T01:42:24.746Z,101403.00
2023-04-21T01:44:53.820Z,101401.00
2023-04-21T01:47:21.461Z,101399.00
2023-04-21T01:49:48.180Z,101400.00
2023-04-21T01:52:14.858Z,101397.00
2023-04-21T01:54:41.616Z,101404.00
2023-04-21T01:57:08.528Z,101402.00
2023-04-21T01:59:35.604Z,101402.00
2023-04-21T02:02:02.273Z,101409.00
2023-04-21T02:04:29.243Z,101395.00
2023-04-21T02:06:56.040Z,101401.00
2023-04-21T02:09:22.872Z,101394.00
2023-04-21T02:11:49.518Z,101397.00
2023-04-21T02:14:16.300Z,101395.00
2023-04-21T02:16:43.178Z,101396.00
2023-04-21T02:19:09.909Z,101392.00
2023-04-21T02:21:36.536Z,101395.00
2023-04-21T02:24:05.252Z,101396.00
2023-04-21T02:26:33.194Z,101394.00
2023-04-21T02:28:59.925Z,101395.00
2023-04-21T02:31:26.949Z,101391.00
2023-04-21T02:33:54.755Z,101381.00
2023-04-21T02:36:21.796Z,101387.00
2023-04-21T02:38:48.496Z,101382.00
2023-04-21T02:41:15.182Z,101379.00
2023-04-21T02:43:41.802Z,101381.00
2023-04-21T02:46:09.768Z,101370.00
2023-04-21T02:48:36.968Z,101375.00
2023-04-21T02:51:04.696Z,101375.00
2023-04-21T02:53:31.719Z,101378.00
2023-04-21T02:55:58.358Z,101371.00
2023-04-21T02:58:25.032Z,101377.00
2023-04-21T03:00:51.845Z,101368.00
2023-04-21T03:03:19.024Z,101366.00
2023-04-21T03:05:46.131Z,101369.00
2023-04-21T03:08:12.997Z,101357.00
2023-04-21T03:10:39.973Z,101355.00
2023-04-21T03:13:06.612Z,101349.00
2023-04-21T03:15:33.247Z,101346.00
2023-04-21T03:17:59.893Z,101343.00
2023-04-21T03:20:26.584Z,101338.00
2023-04-21T03:22:56.168Z,101337.00
2023-04-21T03:25:22.929Z,101336.00
2023-04-21T03:27:49.841Z,101334.00
2023-04-21T03:30:16.632Z,101331.00
2023-04-21T03:32:43.270Z,101340.00
2023-04-21T03:35:09.973Z,101334.00
2023-04-21T03:37:36.731Z,101327.00
2023-04-21T03:40:09.090Z,101324.00
2023-04-21T03:42:35.847Z,101320.00
2023-04-21T03:45:03.913Z,101319.00
2023-04-21T03:47:30.768Z,101318.00
2023-04-21T03:49:57.524Z,101315.00
2023-04-21T03:52:24.791Z,101311.00
2023-04-21T03:54:51.541Z,101300.00
2023-04-21T03:57:18.191Z,101302.00
2023-04-21T03:59:44.982Z,101296.00
2023-04-21T04:02:11.727Z,101302.00
2023-04-21T04:04:38.804Z,101298.00
2023-04-21T04:07:07.519Z,101298.00
2023-04-21T04:09:34.337Z,101292.00
2023-04-21T04:12:02.965Z,101289.00
2023-04-21T04:14:30.319Z,101293.00
2023-04-21T04:16:58.436Z,101285.00
2023-04-21T04:19:30.562Z,101285.00
2023-04-21T04:21:59.689Z,101283.00
2023-04-21T04:24:26.821Z,101277.00
2023-04-21T04:26:54.961Z,101280.00
2023-04-21T04:29:22.736Z,101281.00
2023-04-21T04:31:52.834Z,101277.00
2023-04-21T04:34:19.967Z,101274.00
2023-04-21T04:36:48.124Z,101275.00
2023-04-21T04:39:16.736Z,101273.00
2023-04-21T04:41:43.729Z,101268.00
2023-04-21T04:44:11.360Z,101269.00
2023-04-21T04:46:39.323Z,101272.00
2023-04-21T04:49:06.008Z,101272.00
2023-04-21T04:51:32.829Z,101275.00
2023-04-21T04:53:59.590Z,101274.00
2023-04-21T04:56:26.257Z,101279.00
2023-04-21T04:58:52.984Z,101278.00
2023-04-21T05:01:19.602Z,101283.00
2023-04-21T05:03:46.938Z,101275.00
2023-04-21T05:06:14.395Z,101281.00
2023-04-21T05:08:44.009Z,101278.00
2023-04-21T05:11:10.712Z,101272.00
2023-04-21T05:13:39.809Z,101261.00
2023-04-21T05:16:07.605Z,101272.00
2023-04-21T05:18:34.409Z,101275.00
2023-04-21T05:21:01.107Z,101269.00
2023-04-21T05:23:27.952Z,101271.00
2023-04-21T05:25:54.553Z,101266.00
2023-04-21T05:28:21.425Z,101277.00
2023-04-21T05:30:48.029Z,101272.00
2023-04-21T05:33:14.687Z,101273.00
2023-04-21T05:35:41.521Z,101264.00
2023-04-21T05:38:08.246Z,101267.00
2023-04-21T05:40:34.787Z,101264.00
2023-04-21T05:43:01.410Z,101264.00
2023-04-21T05:45:27.932Z,101263.00
2023-04-21T05:47:54.600Z,101266.00
2023-04-21T05:50:21.337Z,101267.00
2023-04-21T05:52:48.025Z,101274.00
2023-04-21T05:55:14.641Z,101277.00
2023-04-21T05:57:41.339Z,101275.00
2023-04-21T06:00:08.713Z,101277.00
2023-04-21T06:02:35.492Z,101281.00
2023-04-21T06:05:02.502Z,101276.00
2023-04-21T06:07:29.516Z,101280.00
2023-04-21T06:09:57.919Z,101281.00
2023-04-21T06:12:24.833Z,101289.00
2023-04-21T06:14:51.674Z,101282.00
2023-04-21T06:17:18.647Z,101293.00
2023-04-21T06:19:45.397Z,101283.00
2023-04-21T06:22:12.058Z,101286.00
2023-04-21T06:24:38.797Z,101288.00
2023-04-21T06:27:11.261Z,101282.00
2023-04-21T06:29:39.357Z,101278.00
2023-04-21T06:32:06.196Z,101272.00
2023-04-21T06:34:32.911Z,101273.00
2023-04-21T06:36:59.633Z,101274.00
2023-04-21T06:39:26.485Z,101269.00
2023-04-21T06:41:53.259Z,101282.00
2023-04-21T06:44:20.202Z,101274.00
2023-04-21T06:46:47.525Z,101275.00
2023-04-21T06:49:14.158Z,101272.00
2023-04-21T06:51:40.964Z,101276.00
2023-04-21T06:54:07.650Z,101268.00
2023-04-21T06:56:34.527Z,101266.00
2023-04-21T06:59:01.126Z,101260.00
2023-04-21T07:01:27.829Z,101248.00
2023-04-21T07:03:54.854Z,101252.00
2023-04-21T07:06:21.500Z,101253.00
2023-04-21T07:08:48.117Z,101256.00
2023-04-21T07:11:14.704Z,101255.00
2023-04-21T07:13:41.336Z,101264.00
2023-04-21T07:16:08.116Z,101263.00
2023-04-21T07:18:34.852Z,101256.00
2023-04-21T07:21:01.473Z,101261.00
2023-04-21T07:23:28.285Z,101261.00
2023-04-21T07:25:54.966Z,101265.00
2023-04-21T07:28:21.714Z,101263.00
2023-04-21T07:30:48.422Z,101263.00
2023-04-21T07:33:15.503Z,101261.00
2023-04-21T07:35:42.335Z,101252.00
2023-04-21T07:38:09.402Z,101249.00
2023-04-21T07:40:36.028Z,101251.00
2023-04-21T07:43:02.718Z,101250.00
2023-04-21T07:45:29.391Z,101247.00
2023-04-21T07:47:56.072Z,101243.00
2023-04-21T07:50:22.776Z,101248.00
2023-04-21T07:52:49.466Z,101241.00
2023-04-21T07:55:16.216Z,101244.00
2023-04-21T07:57:42.852Z,101241.00
2023-04-21T08:00:10.467Z,101244.00
2023-04-21T08:02:37.207Z,101238.00
2023-04-21T08:05:04.072Z,101253.00
2023-04-21T08:07:31.875Z,101252.00
2023-04-21T08:09:58.869Z,101255.00
2023-04-21T08:12:25.930Z,101246.00
2023-04-21T08:14:52.588Z,101246.00
2023-04-21T08:17:19.228Z,101252.00
2023-04-21T08:19:45.882Z,101244.00
2023-04-21T08:22:12.634Z,101239.00
2023-04-21T08:24:39.766Z,101252.00
2023-04-21T08:27:06.443Z,101249.00
2023-04-21T08:29:33.059Z,101257.00
2023-04-21T08:31:59.843Z,101266.00
2023-04-21T08:34:27.914Z,101262.00
2023-04-21T08:36:54.757Z,101258.00
2023-04-21T08:39:21.588Z,101263.00
2023-04-21T08:41:48.889Z,101267.00
2023-04-21T08:44:15.941Z,101258.00
2023-04-21T08:46:44.785Z,101260.00
2023-04-21T08:49:13.033Z,101263.00
2023-04-21T08:51:40.336Z,101258.00
2023-04-21T08:54:07.007Z,101255.00
2023-04-21T08:56:33.683Z,101258.00
2023-04-21T08:59:00.367Z,101257.00
2023-04-21T09:01:27.167Z,101254.00
2023-04-21T09:03:54.130Z,101256.00
2023-04-21T09:06:21.421Z,101268.00
2023-04-21T09:08:58.051Z,101263.00
2023-04-21T09:11:25.207Z,101256.00
2023-04-21T09:13:51.882Z,101260.00
2023-04-21T09:16:21.648Z,101249.00
2023-04-21T09:18:50.168Z,101253.00
2023-04-21T09:21:18.864Z,101256.00
2023-04-21T09:23:55.551Z,101261.00
2023-04-21T09:26:25.246Z,101260.00
2023-04-21T09:28:53.096Z,101259.00
2023-04-21T09:31:23.062Z,101257.00
2023-04-21T09:36:28.041Z,101265.00
2023-04-21T09:39:05.577Z,101246.00
2023-04-21T09:41:44.522Z,101249.00
2023-04-21T09:44:11.154Z,101252.00
2023-04-21T09:46:38.172Z,101250.00
2023-04-21T09:49:06.170Z,101256.00
2023-04-21T09:51:56.301Z,101253.00
2023-04-21T09:54:29.551Z,101252.00
2023-04-21T09:56:59.542Z,101251.00
2023-04-21T09:59:29.802Z,101250.00
2023-04-21T10:01:58.879Z,101246.00
2023-04-21T10:04:26.399Z,101243.00
2023-04-21T10:06:53.557Z,101260.00
2023-04-21T10:09:23.860Z,101259.00
2023-04-21T10:11:51.665Z,101261.00
2023-04-21T10:14:18.820Z,101255.00
2023-04-21T10:16:56.923Z,101252.00
2023-04-21T10:19:25.800Z,101248.00
2023-04-21T10:21:55.348Z,101239.00
2023-04-21T10:24:22.251Z,101248.00
2023-04-21T10:26:52.630Z,101247.00
2023-04-21T10:29:43.666Z,101242.00
2023-04-21T10:32:33.159Z,101243.00
2023-04-21T10:35:00.150Z,101243.00
2023-04-21T10:37:31.114Z,101234.00
2023-04-21T10:39:57.938Z,101238.00
2023-04-21T10:42:27.324Z,101234.00
2023-04-21T10:45:02.588Z,101224.00
2023-04-21T10:47:37.054Z,101223.00
2023-04-21T10:50:23.536Z,101223.00
2023-04-21T10:53:00.037Z,101213.00
2023-04-21T10:55:28.585Z,101206.00
2023-04-21T10:57:56.089Z,101209.00
2023-04-21T11:00:24.498Z,101202.00
2023-04-21T11:03:03.067Z,101202.00
2023-04-21T11:05:32.251Z,101201.00
2023-04-21T11:08:09.000Z,101200.00
2023-04-21T11:11:02.175Z,101200.00
2023-04-21T11:13:35.029Z,101199.00
2023-04-21T11:16:07.022Z,101196.00
2023-04-21T11:18:45.235Z,101189.00
2023-04-21T11:21:24.594Z,101199.00
2023-04-21T11:23:56.073Z,101191.00
2023-04-21T11:26:33.755Z,101187.00
2023-04-21T11:29:02.286Z,101188.00
2023-04-21T11:31:30.407Z,101184.00
2023-04-21T11:33:58.427Z,101176.00
2023-04-21T11:36:25.143Z,101175.00
2023-04-21T11:38:51.751Z,101173.00
2023-04-21T11:41:22.979Z,101166.00
2023-04-21T11:43:50.808Z,101174.00
2023-04-21T11:46:24.934Z,101165.00
2023-04-21T11:49:13.507Z,101170.00
2023-04-21T11:51:42.256Z,101165.00
2023-04-21T11:54:13.888Z,101160.00
2023-04-21T11:56:42.472Z,101148.00
2023-04-21T11:59:11.021Z,101149.00
2023-04-21T12:01:48.783Z,101146.00
2023-04-21T12:04:19.711Z,101141.00
2023-04-21T12:06:48.032Z,101147.00
2023-04-21T12:09:19.332Z,101143.00
2023-04-21T12:11:51.389Z,101133.00
2023-04-21T12:14:21.036Z,101130.00
2023-04-21T12:16:53.396Z,101130.00
2023-04-21T12:19:39.213Z,101128.00
2023-04-21T12:22:10.751Z,101134.00
2023-04-21T12:24:38.239Z,101130.00
2023-04-21T12:27:05.837Z,101124.00
2023-04-21T12:29:35.730Z,101127.00
2023-04-21T12:32:02.568Z,101120.00
2023-04-21T12:34:29.373Z,101118.00
2023-04-21T12:36:56.086Z,101125.00
2023-04-21T12:39:22.785Z,101125.00
2023-04-21T12:41:49.401Z,101127.00
2023-04-21T12:44:16.057Z,101120.00
2023-04-21T12:46:42.769Z,101111.00
2023-04-21T12:49:10.145Z,101111.00
2023-04-21T12:51:36.895Z,101106.00
2023-04-21T12:54:03.624Z,101103.00
2023-04-21T12:56:30.640Z,101109.00
2023-04-21T12:58:58.248Z,101094.00
2023-04-21T13:01:25.120Z,101096.00
2023-04-21T13:03:52.107Z,101093.00
2023-04-21T13:06:19.108Z,101101.00
2023-04-21T13:08:45.737Z,101094.00
2023-04-21T13:11:12.356Z,101099.00
2023-04-21T13:13:39.086Z,101096.00
2023-04-21T13:16:06.090Z,101091.00
2023-04-21T13:18:34.967Z,101088.00
2023-04-21T13:21:02.108Z,101091.00
2023-04-21T13:23:29.187Z,101083.00
2023-04-21T13:25:56.010Z,101076.00
2023-04-21T13:28:23.524Z,101079.00
2023-04-21T13:30:52.453Z,101079.00
2023-04-21T13:33:19.936Z,101077.00
2023-04-21T13:35:46.724Z,101072.00
2023-04-21T13:38:13.409Z,101066.00
2023-04-21T13:40:39.989Z,101078.00
2023-04-21T13:43:06.780Z,101069.00
2023-04-21T13:45:33.480Z,101069.00
2023-04-21T13:48:00.151Z,101071.00
2023-04-21T13:50:26.792Z,101067.00
2023-04-21T13:52:53.446Z,101064.00
2023-04-21T13:55:21.008Z,101050.00
2023-04-21T13:57:47.579Z,101049.00
2023-04-21T14:00:18.036Z,101051.00
2023-04-21T14:02:45.005Z,101043.00
2023-04-21T14:05:12.052Z,101045.00
2023-04-21T14:07:39.098Z,101036.00
2023-04-21T14:10:08.859Z,101027.00
2023-04-21T14:12:35.602Z,101025.00
2023-04-21T14:15:02.310Z,101006.00
2023-04-21T14:17:28.989Z,101011.00
2023-04-21T14:19:55.735Z,100999.00
2023-04-21T14:22:22.460Z,100993.00
2023-04-21T14:24:49.172Z,100985.00
2023-04-21T14:27:16.252Z,100985.00
2023-04-21T14:29:42.898Z,100983.00
2023-04-21T14:32:09.643Z,100974.00
2023-04-21T14:34:36.304Z,100971.00
2023-04-21T14:37:03.286Z,100959.00
2023-04-21T14:39:29.896Z,100955.00
2023-04-21T14:41:56.579Z,100959.00
2023-04-21T14:44:23.193Z,100946.00
2023-04-21T14:47:00.987Z,100951.00
2023-04-21T14:49:33.131Z,100940.00
2023-04-21T14:52:00.074Z,100941.00
2023-04-21T14:54:26.706Z,100937.00
2023-04-21T14:57:00.539Z,100919.00
2023-04-21T14:59:33.835Z,100921.00
2023-04-21T15:02:01.013Z,100912.00
2023-04-21T15:04:28.152Z,100907.00
2023-04-21T15:06:54.900Z,100906.00
2023-04-21T15:09:21.667Z,100904.00
2023-04-21T15:11:48.449Z,100902.00
2023-04-21T15:14:15.049Z,100902.00
2023-04-21T15:16:41.712Z,100897.00
2023-04-21T15:19:08.365Z,100906.00
2023-04-21T15:21:35.061Z,100899.00
2023-04-21T15:24:01.667Z,100894.00
2023-04-21T15:26:30.326Z,100896.00
2023-04-21T15:28:57.792Z,100901.00
2023-04-21T15:31:24.590Z,100898.00
2023-04-21T15:33:51.341Z,100896.00
2023-04-21T15:36:17.932Z,100899.00
2023-04-21T15:38:45.142Z,100890.00
2023-04-21T15:41:11.906Z,100901.00
2023-04-21T15:43:38.785Z,100886.00
2023-04-21T15:46:13.087Z,100883.00
2023-04-21T15:48:41.489Z,100882.00
2023-04-21T15:51:09.165Z,100871.00
2023-04-21T15:53:37.366Z,100883.00
2023-04-21T15:56:04.902Z,100866.00
2023-04-21T15:58:31.598Z,100873.00
2023-04-21T16:00:58.324Z,100879.00
2023-04-21T16:03:26.408Z,100870.00
2023-04-21T16:05:53.610Z,100871.00
2023-04-21T16:08:20.814Z,100890.00
2023-04-21T16:10:47.638Z,100932.00
2023-04-21T16:13:14.318Z,100968.00
2023-04-21T16:15:41.334Z,100979.00
2023-04-21T16:18:08.606Z,100984.00
2023-04-21T16:20:36.859Z,100978.00
2023-04-21T16:23:04.912Z,100981.00
2023-04-21T16:25:34.362Z,100970.00
2023-04-21T16:28:01.099Z,100969.00
2023-04-21T16:30:27.834Z,100959.00
2023-04-21T16:32:54.505Z,100971.00
2023-04-21T16:35:21.354Z,101007.00
2023-04-21T16:37:48.097Z,100954.00
2023-04-21T16:40:14.761Z,100953.00
2023-04-21T16:42:41.508Z,100951.00
2023-04-21T16:45:08.449Z,100972.00
2023-04-21T16:47:41.355Z,100979.00
2023-04-21T16:50:09.267Z,100994.00
2023-04-21T16:52:35.963Z,100996.00
2023-04-21T16:55:02.527Z,101008.00
2023-04-21T16:57:30.430Z,101007.00
2023-04-21T16:59:59.147Z,101006.00
2023-04-21T17:02:26.131Z,101000.00
2023-04-21T17:04:52.863Z,100976.00
2023-04-21T17:07:19.519Z,100965.00
2023-04-21T17:09:46.123Z,100955.00
2023-04-21T17:12:12.797Z,100938.00
2023-04-21T17:14:40.319Z,100938.00
2023-04-21T17:17:07.239Z,100945.00
2023-04-21T17:19:34.048Z,100949.00
2023-04-21T17:22:00.953Z,100950.00
2023-04-21T17:24:33.101Z,100938.00
2023-04-21T17:27:04.884Z,100924.00
2023-04-21T17:29:31.953Z,100920.00
2023-04-21T17:31:58.733Z,100914.00
2023-04-21T17:34:25.344Z,100914.00
2023-04-21T17:36:51.998Z,100909.00
2023-04-21T17:39:18.657Z,100920.00
2023-04-21T17:41:47.245Z,100931.00
2023-04-21T17:44:13.922Z,100949.00
2023-04-21T17:46:41.719Z,100958.00
2023-04-21T17:49:08.430Z,100977.00
2023-04-21T17:51:36.111Z,100987.00
2023-04-21T17:54:03.286Z,100969.00
2023-04-21T17:56:29.906Z,100954.00
2023-04-21T17:58:56.653Z,100963.00
2023-04-21T18:01:23.349Z,100985.00
2023-04-21T18:03:50.223Z,101005.00
2023-04-21T18:06:17.558Z,101010.00
2023-04-21T18:08:44.264Z,101014.00
2023-04-21T18:11:12.186Z,101013.00
2023-04-21T18:13:38.820Z,101001.00
2023-04-21T18:16:05.616Z,100998.00
2023-04-21T18:18:32.322Z,100985.00
2023-04-21T18:20:59.792Z,100978.00
2023-04-21T18:23:26.433Z,100968.00
2023-04-21T18:25:52.983Z,100961.00
2023-04-21T18:28:19.630Z,100946.00
2023-04-21T18:30:46.862Z,100950.00
2023-04-21T18:33:13.524Z,100931.00
2023-04-21T18:35:41.656Z,100924.00
2023-04-21T18:38:10.464Z,100920.00
2023-04-21T18:40:37.695Z,100922.00
2023-04-21T18:43:05.147Z,100918.00
2023-04-21T18:45:32.063Z,100924.00
2023-04-21T18:47:58.826Z,100924.00
2023-04-21T18:50:27.613Z,100919.00
2023-04-21T18:52:55.109Z,100905.00
2023-04-21T18:55:22.025Z,100894.00
2023-04-21T18:57:48.869Z,100888.00
2023-04-21T19:00:15.909Z,100878.00
2023-04-21T19:02:43.321Z,100871.00
2023-04-21T19:05:10.027Z,100860.00
2023-04-21T19:07:36.746Z,100862.00
2023-04-21T19:10:03.392Z,100879.00
2023-04-21T19:12:30.064Z,100895.00
2023-04-21T19:14:56.769Z,100900.00
2023-04-21T19:17:23.502Z,100896.00
2023-04-21T19:19:51.120Z,100890.00
2023-04-21T19:22:19.890Z,100892.00
2023-04-21T19:24:47.463Z,100888.00
2023-04-21T19:27:14.125Z,100884.00
2023-04-21T19:29:41.519Z,100885.00
2023-04-21T19:32:08.323Z,100883.00
2023-04-21T19:34:35.060Z,100881.00
2023-04-21T19:37:01.795Z,100872.00
2023-04-21T19:39:28.728Z,100875.00
2023-04-21T19:41:57.429Z,100869.00
2023-04-21T19:44:24.292Z,100879.00
2023-04-21T19:46:51.266Z,100882.00
2023-04-21T19:49:18.015Z,100880.00
2023-04-21T19:51:44.660Z,100878.00
2023-04-21T19:54:13.178Z,100875.00
2023-04-21T19:56:40.783Z,100870.00
2023-04-21T19:59:07.687Z,100868.00
2023-04-21T20:01:34.746Z,100857.00
2023-04-21T20:04:02.152Z,100862.00
2023-04-21T20:06:29.184Z,100860.00
2023-04-21T20:08:56.075Z,100865.00
2023-04-21T20:11:23.285Z,100867.00
2023-04-21T20:13:50.522Z,100866.00
2023-04-21T20:16:20.871Z,100859.00
2023-04-21T20:18:48.967Z,100855.00
2023-04-21T20:21:15.585Z,100862.00
2023-04-21T20:23:42.161Z,100862.00
2023-04-21T20:26:08.798Z,100858.00
2023-04-21T20:28:36.089Z,100860.00
2023-04-21T20:31:02.899Z,100863.00
2023-04-21T20:33:30.268Z,100853.00
2023-04-21T20:35:57.248Z,100849.00
2023-04-21T20:38:24.055Z,100852.00
2023-04-21T20:40:52.474Z,100845.00
2023-04-21T20:43:19.320Z,100837.00
2023-04-21T20:45:47.734Z,100849.00
2023-04-21T20:48:14.373Z,100851.00
2023-04-21T20:50:42.262Z,100844.00
2023-04-21T20:53:10.087Z,100848.00
2023-04-21T20:55:36.929Z,100850.00
2023-04-21T20:58:04.701Z,100849.00
2023-04-21T21:00:33.046Z,100853.00
2023-04-21T21:03:00.386Z,100848.00
2023-04-21T21:05:33.390Z,100834.00
2023-04-21T21:08:00.067Z,100838.00
2023-04-21T21:10:26.892Z,100853.00
2023-04-21T21:12:53.642Z,100849.00
2023-04-21T21:15:20.228Z,100849.00
2023-04-21T21:17:46.942Z,100846.00
2023-04-21T21:20:13.561Z,100844.00
2023-04-21T21:22:40.207Z,100847.00
2023-04-21T21:25:07.176Z,100845.00
2023-04-21T21:27:34.164Z,100836.00
2023-04-21T21:30:00.889Z,100849.00
2023-04-21T21:32:27.576Z,100848.00
2023-04-21T21:34:54.192Z,100838.00
2023-04-21T21:37:21.340Z,100838.00
2023-04-21T21:39:48.354Z,100836.00
2023-04-21T21:42:15.099Z,100844.00
2023-04-21T21:44:41.715Z,100832.00
2023-04-21T21:47:08.348Z,100835.00
2023-04-21T21:49:35.052Z,100835.00
2023-04-21T21:52:02.600Z,100834.00
2023-04-21T21:54:29.276Z,100837.00
2023-04-21T21:56:56.344Z,100823.00
2023-04-21T21:59:23.158Z,100832.00
2023-04-21T22:01:51.167Z,100831.00
2023-04-21T22:04:18.050Z,100828.00
2023-04-21T22:06:45.532Z,100819.00
2023-04-21T22:09:12.206Z,100822.00
2023-04-21T22:11:38.787Z,100815.00
2023-04-21T22:14:18.529Z,100810.00
2023-04-21T22:16:50.821Z,100812.00
2023-04-21T22:19:19.254Z,100810.00
2023-04-21T22:21:46.050Z,100812.00
2023-04-21T22:24:13.018Z,100806.00
2023-04-21T22:26:39.784Z,100820.00
2023-04-21T22:29:07.096Z,100824.00
2023-04-21T22:31:33.889Z,100829.00
2023-04-21T22:34:00.742Z,100829.00
2023-04-21T22:36:27.401Z,100831.00
2023-04-21T22:38:54.044Z,100836.00
2023-04-21T22:41:21.223Z,100828.00
2023-04-21T22:43:47.943Z,100829.00
2023-04-21T22:46:14.970Z,100828.00
2023-04-21T22:48:41.826Z,100828.00
2023-04-21T22:51:08.558Z,100833.00
2023-04-21T22:53:35.501Z,100835.00
2023-04-21T22:56:02.504Z,100836.00
2023-04-21T22:58:29.220Z,100829.00
2023-04-21T23:01:39.359Z,100823.00
2023-04-21T23:04:06.187Z,100820.00
2023-04-21T23:06:33.345Z,100823.00
2023-04-21T23:09:00.175Z,100824.00
2023-04-21T23:11:26.896Z,100833.00
2023-04-21T23:13:54.035Z,100837.00
2023-04-21T23:16:20.844Z,100830.00
2023-04-21T23:18:47.528Z,100830.00
2023-04-21T23:21:14.442Z,100824.00
2023-04-21T23:23:41.078Z,100830.00
2023-04-21T23:26:07.710Z,100827.00
2023-04-21T23:28:34.343Z,100826.00
2023-04-21T23:31:01.047Z,100822.00
2023-04-21T23:33:27.732Z,100823.00
2023-04-21T23:35:57.344Z,100828.00
2023-04-21T23:38:23.997Z,100830.00
2023-04-21T23:40:50.608Z,100832.00
2023-04-21T23:43:17.204Z,100831.00
2023-04-21T23:45:43.875Z,100831.00
2023-04-21T23:48:10.489Z,100825.00
2023-04-21T23:50:37.372Z,100825.00
2023-04-21T23:53:04.100Z,100823.00
2023-04-21T23:55:30.824Z,100826.00
2023-04-21T23:57:58.188Z,100827.00
